CSN7132 ZGNN-ZGGG
Flight info
| Callsign | CSN7132 |
|---|---|
| Flight time | 1h 4m |
| Altitude | 26600 |
| Route | WUY R474 GYA GYA7 |
| Aircraft | A20N/M-SDE2E3FGHIRWXY/LB1 |
Departure
| Time | 2026-05-05 12:59 |
|---|---|
| Airport | Nanning Wuxu International Airport (ZGNN) |
Arrival
| Time | 2026-05-05 14:04 |
|---|---|
| Airport | Guangzhou Baiyun International Airport (ZGGG) |
| Time | Latitude | Longitude | Altitude | Speed | Heading |
|---|---|---|---|---|---|
| 2026-05-05 12:30 | 22.60812 | 108.18459 | 425 ft | 0 kts | 135° |
| 2026-05-05 12:48 | 22.60820 | 108.18451 | 425 ft | 2 kts | 135° |
| 2026-05-05 12:48 | 22.60831 | 108.18440 | 425 ft | 1 kts | 136° |
| 2026-05-05 12:48 | 22.60838 | 108.18432 | 425 ft | 2 kts | 126° |
| 2026-05-05 12:49 | 22.60845 | 108.18417 | 425 ft | 2 kts | 109° |
| 2026-05-05 12:49 | 22.60848 | 108.18401 | 425 ft | 2 kts | 92° |
| 2026-05-05 12:49 | 22.60847 | 108.18385 | 425 ft | 2 kts | 76° |
| 2026-05-05 12:49 | 22.60842 | 108.18369 | 425 ft | 2 kts | 60° |
| 2026-05-05 12:50 | 22.60835 | 108.18359 | 425 ft | 0 kts | 47° |
| 2026-05-05 12:50 | 22.60830 | 108.18353 | 425 ft | 0 kts | 44° |
| 2026-05-05 12:52 | 22.60831 | 108.18353 | 425 ft | 0 kts | 44° |
| 2026-05-05 12:52 | 22.60836 | 108.18359 | 425 ft | 1 kts | 43° |
| 2026-05-05 12:52 | 22.60842 | 108.18365 | 425 ft | 1 kts | 44° |
| 2026-05-05 12:53 | 22.60852 | 108.18376 | 425 ft | 2 kts | 45° |
| 2026-05-05 12:53 | 22.60891 | 108.18417 | 425 ft | 12 kts | 36° |
| 2026-05-05 12:53 | 22.60967 | 108.18388 | 425 ft | 13 kts | 316° |
| 2026-05-05 12:53 | 22.61035 | 108.18318 | 425 ft | 13 kts | 316° |
| 2026-05-05 12:54 | 22.61023 | 108.18147 | 425 ft | 13 kts | 314° |
| 2026-05-05 12:54 | 22.61101 | 108.18099 | 425 ft | 13 kts | 32° |
| 2026-05-05 12:54 | 22.61168 | 108.18170 | 425 ft | 13 kts | 42° |
| 2026-05-05 12:55 | 22.61232 | 108.18246 | 425 ft | 13 kts | 46° |
| 2026-05-05 12:55 | 22.61299 | 108.18322 | 425 ft | 14 kts | 47° |
| 2026-05-05 12:55 | 22.61342 | 108.18375 | 425 ft | 14 kts | 48° |
| 2026-05-05 12:55 | 22.61414 | 108.18458 | 425 ft | 15 kts | 46° |
| 2026-05-05 12:56 | 22.61492 | 108.18546 | 425 ft | 17 kts | 47° |
| 2026-05-05 12:56 | 22.61549 | 108.18611 | 425 ft | 19 kts | 46° |
| 2026-05-05 12:56 | 22.61640 | 108.18716 | 425 ft | 17 kts | 46° |
| 2026-05-05 12:56 | 22.61722 | 108.18773 | 425 ft | 11 kts | 342° |
| 2026-05-05 12:57 | 22.61761 | 108.18744 | 425 ft | 0 kts | 319° |
| 2026-05-05 12:57 | 22.61761 | 108.18743 | 425 ft | 0 kts | 319° |
| 2026-05-05 12:57 | 22.61768 | 108.18737 | 425 ft | 2 kts | 319° |
| 2026-05-05 12:57 | 22.61783 | 108.18722 | 425 ft | 3 kts | 316° |
| 2026-05-05 12:58 | 22.61804 | 108.18700 | 425 ft | 5 kts | 316° |
| 2026-05-05 12:58 | 22.61812 | 108.18663 | 425 ft | 6 kts | 242° |
| 2026-05-05 12:58 | 22.61782 | 108.18623 | 425 ft | 8 kts | 227° |
| 2026-05-05 12:58 | 22.61594 | 108.18407 | 425 ft | 76 kts | 227° |
| 2026-05-05 12:59 | 22.61074 | 108.17814 | 425 ft | 138 kts | 226° |
| 2026-05-05 12:59 | 22.60302 | 108.16921 | 619 ft | 169 kts | 225° |
| 2026-05-05 12:59 | 22.59516 | 108.15984 | 1207 ft | 170 kts | 226° |
| 2026-05-05 13:00 | 22.58380 | 108.13748 | 2473 ft | 177 kts | 241° |
| 2026-05-05 13:00 | 22.57820 | 108.12497 | 2909 ft | 193 kts | 241° |
| 2026-05-05 13:01 | 22.55787 | 108.08273 | 3961 ft | 218 kts | 240° |
| 2026-05-05 13:01 | 22.55067 | 108.06817 | 3965 ft | 217 kts | 240° |
| 2026-05-05 13:01 | 22.54336 | 108.05344 | 4044 ft | 229 kts | 240° |
| 2026-05-05 13:01 | 22.53537 | 108.03748 | 4358 ft | 255 kts | 240° |
| 2026-05-05 13:02 | 22.52697 | 108.02063 | 5290 ft | 255 kts | 240° |
| 2026-05-05 13:02 | 22.51716 | 108.00485 | 6265 ft | 253 kts | 222° |
| 2026-05-05 13:02 | 22.50200 | 107.99583 | 7141 ft | 255 kts | 194° |
| 2026-05-05 13:02 | 22.48425 | 107.99561 | 7931 ft | 262 kts | 167° |
| 2026-05-05 13:03 | 22.46800 | 108.00465 | 8646 ft | 271 kts | 141° |
| 2026-05-05 13:03 | 22.45417 | 108.01881 | 9354 ft | 277 kts | 135° |
| 2026-05-05 13:03 | 22.44373 | 108.03704 | 9776 ft | 297 kts | 105° |
| 2026-05-05 13:03 | 22.44330 | 108.05966 | 10174 ft | 313 kts | 74° |
| 2026-05-05 13:04 | 22.45211 | 108.08160 | 10561 ft | 327 kts | 59° |
| 2026-05-05 13:04 | 22.46383 | 108.10407 | 10917 ft | 345 kts | 59° |
| 2026-05-05 13:04 | 22.47538 | 108.12763 | 11242 ft | 363 kts | 62° |
| 2026-05-05 13:04 | 22.48644 | 108.15237 | 11790 ft | 371 kts | 63° |
| 2026-05-05 13:05 | 22.49709 | 108.17782 | 12476 ft | 375 kts | 64° |
| 2026-05-05 13:05 | 22.50764 | 108.20399 | 13149 ft | 378 kts | 65° |
| 2026-05-05 13:05 | 22.51802 | 108.23025 | 13806 ft | 382 kts | 65° |
| 2026-05-05 13:05 | 22.52840 | 108.25677 | 14270 ft | 385 kts | 65° |
| 2026-05-05 13:06 | 22.53876 | 108.28338 | 14482 ft | 386 kts | 65° |
| 2026-05-05 13:06 | 22.54930 | 108.31049 | 14495 ft | 385 kts | 65° |
| 2026-05-05 13:06 | 22.55964 | 108.33718 | 14507 ft | 386 kts | 65° |
| 2026-05-05 13:06 | 22.57002 | 108.36396 | 14504 ft | 385 kts | 65° |
| 2026-05-05 13:07 | 22.58041 | 108.39077 | 14494 ft | 385 kts | 65° |
| 2026-05-05 13:07 | 22.59072 | 108.41743 | 14505 ft | 386 kts | 65° |
| 2026-05-05 13:07 | 22.60119 | 108.44450 | 14508 ft | 386 kts | 65° |
| 2026-05-05 13:07 | 22.61157 | 108.47132 | 14509 ft | 386 kts | 65° |
| 2026-05-05 13:08 | 22.62125 | 108.49849 | 14508 ft | 386 kts | 70° |
| 2026-05-05 13:08 | 22.62832 | 108.52647 | 14505 ft | 387 kts | 76° |
| 2026-05-05 13:08 | 22.63274 | 108.55531 | 14506 ft | 388 kts | 81° |
| 2026-05-05 13:08 | 22.63604 | 108.58458 | 14504 ft | 388 kts | 82° |
| 2026-05-05 13:09 | 22.63913 | 108.61355 | 14504 ft | 388 kts | 82° |
| 2026-05-05 13:09 | 22.64221 | 108.64231 | 14505 ft | 387 kts | 82° |
| 2026-05-05 13:09 | 22.64537 | 108.67140 | 14505 ft | 387 kts | 82° |
| 2026-05-05 13:09 | 22.64855 | 108.70037 | 14526 ft | 390 kts | 82° |
| 2026-05-05 13:10 | 22.65184 | 108.73016 | 14941 ft | 396 kts | 82° |
| 2026-05-05 13:10 | 22.65509 | 108.75957 | 15625 ft | 395 kts | 82° |
| 2026-05-05 13:10 | 22.65837 | 108.78920 | 16211 ft | 398 kts | 82° |
| 2026-05-05 13:10 | 22.66164 | 108.81873 | 16721 ft | 402 kts | 82° |
| 2026-05-05 13:11 | 22.66500 | 108.84899 | 17232 ft | 406 kts | 82° |
| 2026-05-05 13:11 | 22.66839 | 108.87968 | 17734 ft | 410 kts | 82° |
| 2026-05-05 13:11 | 22.67179 | 108.91044 | 18242 ft | 413 kts | 82° |
| 2026-05-05 13:11 | 22.67522 | 108.94155 | 18756 ft | 416 kts | 82° |
| 2026-05-05 13:12 | 22.67863 | 108.97250 | 19259 ft | 419 kts | 82° |
| 2026-05-05 13:12 | 22.68207 | 109.00386 | 19787 ft | 421 kts | 82° |
| 2026-05-05 13:12 | 22.68555 | 109.03566 | 20290 ft | 424 kts | 82° |
| 2026-05-05 13:12 | 22.68901 | 109.06730 | 20766 ft | 428 kts | 82° |
| 2026-05-05 13:13 | 22.69252 | 109.09950 | 21235 ft | 431 kts | 82° |
| 2026-05-05 13:13 | 22.69605 | 109.13178 | 21697 ft | 434 kts | 81° |
| 2026-05-05 13:13 | 22.69975 | 109.16467 | 22165 ft | 438 kts | 81° |
| 2026-05-05 13:13 | 22.70347 | 109.19746 | 22616 ft | 441 kts | 81° |
| 2026-05-05 13:14 | 22.70717 | 109.23025 | 23030 ft | 445 kts | 81° |
| 2026-05-05 13:14 | 22.71096 | 109.26399 | 23433 ft | 449 kts | 81° |
| 2026-05-05 13:14 | 22.71475 | 109.29764 | 23832 ft | 453 kts | 81° |
| 2026-05-05 13:14 | 22.71870 | 109.33202 | 24258 ft | 456 kts | 81° |
| 2026-05-05 13:15 | 22.72262 | 109.36603 | 24675 ft | 458 kts | 81° |
| 2026-05-05 13:15 | 22.72653 | 109.40016 | 25169 ft | 459 kts | 81° |
| 2026-05-05 13:15 | 22.73047 | 109.43459 | 25633 ft | 460 kts | 81° |
| 2026-05-05 13:15 | 22.73445 | 109.46922 | 26051 ft | 462 kts | 80° |
| 2026-05-05 13:16 | 22.73842 | 109.50389 | 26417 ft | 465 kts | 80° |
| 2026-05-05 13:16 | 22.74243 | 109.53881 | 26514 ft | 467 kts | 80° |
| 2026-05-05 13:16 | 22.74643 | 109.57374 | 26519 ft | 467 kts | 80° |
| 2026-05-05 13:16 | 22.75047 | 109.60908 | 26519 ft | 467 kts | 80° |
| 2026-05-05 13:17 | 22.75442 | 109.64370 | 26520 ft | 467 kts | 80° |
| 2026-05-05 13:17 | 22.75842 | 109.67886 | 26519 ft | 467 kts | 81° |
| 2026-05-05 13:17 | 22.76242 | 109.71411 | 26519 ft | 467 kts | 81° |
| 2026-05-05 13:17 | 22.76639 | 109.74917 | 26517 ft | 467 kts | 81° |
| 2026-05-05 13:18 | 22.77032 | 109.78396 | 26517 ft | 467 kts | 81° |
| 2026-05-05 13:18 | 22.77429 | 109.81918 | 26515 ft | 467 kts | 81° |
| 2026-05-05 13:18 | 22.77823 | 109.85411 | 26513 ft | 467 kts | 81° |
| 2026-05-05 13:18 | 22.78214 | 109.88895 | 26512 ft | 467 kts | 81° |
| 2026-05-05 13:19 | 22.78610 | 109.92430 | 26513 ft | 467 kts | 81° |
| 2026-05-05 13:19 | 22.78996 | 109.95874 | 26513 ft | 467 kts | 81° |
| 2026-05-05 13:19 | 22.79386 | 109.99372 | 26515 ft | 467 kts | 81° |
| 2026-05-05 13:19 | 22.79775 | 110.02869 | 26515 ft | 467 kts | 81° |
| 2026-05-05 13:20 | 22.80168 | 110.06403 | 26518 ft | 466 kts | 81° |
| 2026-05-05 13:20 | 22.80558 | 110.09913 | 26526 ft | 466 kts | 81° |
| 2026-05-05 13:20 | 22.80944 | 110.13389 | 26530 ft | 467 kts | 81° |
| 2026-05-05 13:20 | 22.81334 | 110.16917 | 26527 ft | 467 kts | 81° |
| 2026-05-05 13:21 | 22.81724 | 110.20442 | 26528 ft | 467 kts | 81° |
| 2026-05-05 13:21 | 22.82113 | 110.23979 | 26525 ft | 467 kts | 81° |
| 2026-05-05 13:21 | 22.82493 | 110.27437 | 26527 ft | 467 kts | 81° |
| 2026-05-05 13:21 | 22.82877 | 110.30943 | 26531 ft | 467 kts | 81° |
| 2026-05-05 13:22 | 22.83262 | 110.34470 | 26528 ft | 467 kts | 81° |
| 2026-05-05 13:22 | 22.83644 | 110.37962 | 26532 ft | 467 kts | 81° |
| 2026-05-05 13:22 | 22.84030 | 110.41507 | 26534 ft | 467 kts | 81° |
| 2026-05-05 13:22 | 22.84407 | 110.44968 | 26533 ft | 467 kts | 81° |
| 2026-05-05 13:23 | 22.84789 | 110.48483 | 26536 ft | 468 kts | 81° |
| 2026-05-05 13:23 | 22.85170 | 110.52003 | 26540 ft | 467 kts | 81° |
| 2026-05-05 13:23 | 22.85550 | 110.55521 | 26541 ft | 467 kts | 80° |
| 2026-05-05 13:23 | 22.85951 | 110.59029 | 26545 ft | 467 kts | 80° |
| 2026-05-05 13:24 | 22.86361 | 110.62483 | 26551 ft | 467 kts | 80° |
| 2026-05-05 13:24 | 22.86783 | 110.66025 | 26559 ft | 467 kts | 80° |
| 2026-05-05 13:24 | 22.87200 | 110.69546 | 26562 ft | 468 kts | 80° |
| 2026-05-05 13:24 | 22.87612 | 110.73052 | 26573 ft | 467 kts | 80° |
| 2026-05-05 13:25 | 22.88023 | 110.76567 | 26574 ft | 468 kts | 80° |
| 2026-05-05 13:25 | 22.88429 | 110.80053 | 26575 ft | 467 kts | 80° |
| 2026-05-05 13:25 | 22.88841 | 110.83589 | 26580 ft | 467 kts | 80° |
| 2026-05-05 13:25 | 22.89247 | 110.87090 | 26573 ft | 467 kts | 80° |
| 2026-05-05 13:26 | 22.89651 | 110.90562 | 26569 ft | 467 kts | 80° |
| 2026-05-05 13:26 | 22.90055 | 110.94053 | 26571 ft | 467 kts | 80° |
| 2026-05-05 13:26 | 22.90460 | 110.97565 | 26566 ft | 467 kts | 80° |
| 2026-05-05 13:26 | 22.90868 | 111.01100 | 26558 ft | 467 kts | 80° |
| 2026-05-05 13:27 | 22.91268 | 111.04581 | 26561 ft | 467 kts | 81° |
| 2026-05-05 13:27 | 22.91675 | 111.08133 | 26564 ft | 467 kts | 80° |
| 2026-05-05 13:27 | 22.92079 | 111.11662 | 26559 ft | 467 kts | 80° |
| 2026-05-05 13:27 | 22.92479 | 111.15173 | 26558 ft | 467 kts | 80° |
| 2026-05-05 13:28 | 22.92878 | 111.18676 | 26561 ft | 467 kts | 80° |
| 2026-05-05 13:28 | 22.93279 | 111.22194 | 26564 ft | 467 kts | 80° |
| 2026-05-05 13:28 | 22.93680 | 111.25718 | 26570 ft | 467 kts | 80° |
| 2026-05-05 13:28 | 22.94078 | 111.29222 | 26566 ft | 467 kts | 80° |
| 2026-05-05 13:29 | 22.94477 | 111.32741 | 26566 ft | 467 kts | 80° |
| 2026-05-05 13:29 | 22.94875 | 111.36256 | 26566 ft | 467 kts | 80° |
| 2026-05-05 13:29 | 22.95267 | 111.39738 | 26566 ft | 467 kts | 80° |
| 2026-05-05 13:29 | 22.95663 | 111.43255 | 26568 ft | 467 kts | 80° |
| 2026-05-05 13:30 | 22.96061 | 111.46802 | 26566 ft | 467 kts | 80° |
| 2026-05-05 13:30 | 22.96454 | 111.50307 | 26572 ft | 467 kts | 80° |
| 2026-05-05 13:30 | 22.96848 | 111.53826 | 26569 ft | 467 kts | 80° |
| 2026-05-05 13:30 | 22.97238 | 111.57326 | 26570 ft | 467 kts | 80° |
| 2026-05-05 13:31 | 22.97630 | 111.60867 | 26566 ft | 467 kts | 80° |
| 2026-05-05 13:31 | 22.98015 | 111.64370 | 26177 ft | 468 kts | 80° |
| 2026-05-05 13:31 | 22.98400 | 111.67909 | 25679 ft | 463 kts | 81° |
| 2026-05-05 13:31 | 22.98779 | 111.71400 | 25187 ft | 458 kts | 81° |
| 2026-05-05 13:32 | 22.99155 | 111.74856 | 24693 ft | 454 kts | 81° |
| 2026-05-05 13:32 | 22.99531 | 111.78324 | 24185 ft | 454 kts | 81° |
| 2026-05-05 13:32 | 22.99907 | 111.81783 | 23606 ft | 454 kts | 82° |
| 2026-05-05 13:32 | 23.00282 | 111.85242 | 23019 ft | 453 kts | 82° |
| 2026-05-05 13:33 | 23.00650 | 111.88656 | 22483 ft | 452 kts | 82° |
| 2026-05-05 13:33 | 23.01025 | 111.92144 | 21992 ft | 452 kts | 82° |
| 2026-05-05 13:33 | 23.01390 | 111.95563 | 21509 ft | 448 kts | 82° |
| 2026-05-05 13:33 | 23.01751 | 111.98945 | 21034 ft | 444 kts | 82° |
| 2026-05-05 13:34 | 23.02108 | 112.02304 | 20552 ft | 439 kts | 82° |
| 2026-05-05 13:34 | 23.02461 | 112.05600 | 20078 ft | 435 kts | 82° |
| 2026-05-05 13:34 | 23.02805 | 112.08828 | 19607 ft | 432 kts | 82° |
| 2026-05-05 13:34 | 23.03179 | 112.12077 | 19131 ft | 428 kts | 81° |
| 2026-05-05 13:35 | 23.03572 | 112.15309 | 18648 ft | 425 kts | 83° |
| 2026-05-05 13:35 | 23.03771 | 112.18497 | 18177 ft | 422 kts | 86° |
| 2026-05-05 13:35 | 23.03889 | 112.21688 | 17701 ft | 418 kts | 86° |
| 2026-05-05 13:35 | 23.04000 | 112.24830 | 17236 ft | 415 kts | 86° |
| 2026-05-05 13:36 | 23.04121 | 112.27943 | 16776 ft | 411 kts | 86° |
| 2026-05-05 13:36 | 23.04252 | 112.31054 | 16313 ft | 409 kts | 86° |
| 2026-05-05 13:36 | 23.04389 | 112.34135 | 15846 ft | 406 kts | 86° |
| 2026-05-05 13:36 | 23.04528 | 112.37199 | 15377 ft | 403 kts | 86° |
| 2026-05-05 13:37 | 23.04693 | 112.40268 | 14902 ft | 400 kts | 85° |
| 2026-05-05 13:37 | 23.04894 | 112.43285 | 14428 ft | 396 kts | 84° |
| 2026-05-05 13:37 | 23.05109 | 112.46259 | 13962 ft | 393 kts | 84° |
| 2026-05-05 13:37 | 23.05326 | 112.49237 | 13486 ft | 390 kts | 84° |
| 2026-05-05 13:38 | 23.05542 | 112.52209 | 13001 ft | 385 kts | 85° |
| 2026-05-05 13:38 | 23.05747 | 112.55088 | 12532 ft | 381 kts | 85° |
| 2026-05-05 13:38 | 23.05952 | 112.57976 | 12053 ft | 376 kts | 85° |
| 2026-05-05 13:38 | 23.06153 | 112.60822 | 11566 ft | 373 kts | 85° |
| 2026-05-05 13:39 | 23.06350 | 112.63617 | 11089 ft | 369 kts | 85° |
| 2026-05-05 13:39 | 23.06547 | 112.66431 | 10600 ft | 366 kts | 85° |
| 2026-05-05 13:39 | 23.06740 | 112.69199 | 10116 ft | 362 kts | 85° |
| 2026-05-05 13:39 | 23.06932 | 112.71952 | 9627 ft | 359 kts | 85° |
| 2026-05-05 13:40 | 23.06956 | 112.74715 | 9116 ft | 356 kts | 100° |
| 2026-05-05 13:40 | 23.06007 | 112.77206 | 8620 ft | 349 kts | 128° |
| 2026-05-05 13:40 | 23.04185 | 112.78883 | 8133 ft | 340 kts | 156° |
| 2026-05-05 13:40 | 23.01893 | 112.79406 | 7797 ft | 323 kts | 187° |
| 2026-05-05 13:41 | 22.99805 | 112.78701 | 7772 ft | 299 kts | 212° |
| 2026-05-05 13:41 | 22.98195 | 112.77353 | 7766 ft | 279 kts | 229° |
| 2026-05-05 13:41 | 22.97086 | 112.75658 | 7760 ft | 260 kts | 245° |
| 2026-05-05 13:41 | 22.96525 | 112.73843 | 7757 ft | 242 kts | 261° |
| 2026-05-05 13:42 | 22.96448 | 112.72039 | 7761 ft | 229 kts | 272° |
| 2026-05-05 13:42 | 22.96525 | 112.70276 | 7648 ft | 228 kts | 272° |
| 2026-05-05 13:42 | 22.96590 | 112.68558 | 7529 ft | 228 kts | 271° |
| 2026-05-05 13:42 | 22.96635 | 112.66821 | 7408 ft | 227 kts | 271° |
| 2026-05-05 13:43 | 22.96709 | 112.65069 | 7280 ft | 228 kts | 280° |
| 2026-05-05 13:43 | 22.97257 | 112.63424 | 7156 ft | 229 kts | 300° |
| 2026-05-05 13:43 | 22.98290 | 112.62035 | 7034 ft | 231 kts | 317° |
| 2026-05-05 13:43 | 22.99652 | 112.61061 | 6917 ft | 234 kts | 334° |
| 2026-05-05 13:44 | 23.01236 | 112.60577 | 6794 ft | 237 kts | 352° |
| 2026-05-05 13:44 | 23.02904 | 112.60646 | 6671 ft | 239 kts | 11° |
| 2026-05-05 13:44 | 23.04488 | 112.61289 | 6548 ft | 241 kts | 30° |
| 2026-05-05 13:44 | 23.05793 | 112.62434 | 6422 ft | 240 kts | 49° |
| 2026-05-05 13:45 | 23.06675 | 112.63914 | 6292 ft | 232 kts | 67° |
| 2026-05-05 13:45 | 23.07092 | 112.65591 | 6157 ft | 223 kts | 85° |
| 2026-05-05 13:45 | 23.07124 | 112.67263 | 6040 ft | 220 kts | 92° |
| 2026-05-05 13:45 | 23.07074 | 112.68922 | 6000 ft | 220 kts | 92° |
| 2026-05-05 13:46 | 23.07024 | 112.70591 | 5992 ft | 220 kts | 92° |
| 2026-05-05 13:46 | 23.06989 | 112.72276 | 5990 ft | 220 kts | 91° |
| 2026-05-05 13:46 | 23.06966 | 112.73937 | 5988 ft | 220 kts | 91° |
| 2026-05-05 13:46 | 23.06950 | 112.75613 | 5988 ft | 220 kts | 91° |
| 2026-05-05 13:47 | 23.06937 | 112.77283 | 6021 ft | 216 kts | 91° |
| 2026-05-05 13:47 | 23.06925 | 112.78855 | 6032 ft | 200 kts | 91° |
| 2026-05-05 13:47 | 23.06914 | 112.80299 | 5978 ft | 183 kts | 91° |
| 2026-05-05 13:47 | 23.06904 | 112.81641 | 5949 ft | 170 kts | 91° |
| 2026-05-05 13:48 | 23.06893 | 112.82918 | 5964 ft | 170 kts | 91° |
| 2026-05-05 13:48 | 23.06882 | 112.84211 | 5966 ft | 170 kts | 91° |
| 2026-05-05 13:48 | 23.06871 | 112.85518 | 5970 ft | 170 kts | 91° |
| 2026-05-05 13:48 | 23.06860 | 112.86835 | 5972 ft | 171 kts | 91° |
| 2026-05-05 13:49 | 23.06848 | 112.88136 | 5972 ft | 171 kts | 91° |
| 2026-05-05 13:49 | 23.06837 | 112.89447 | 5966 ft | 171 kts | 91° |
| 2026-05-05 13:49 | 23.06825 | 112.90756 | 5964 ft | 171 kts | 91° |
| 2026-05-05 13:49 | 23.06814 | 112.92073 | 5855 ft | 171 kts | 91° |
| 2026-05-05 13:50 | 23.06802 | 112.93386 | 5730 ft | 170 kts | 91° |
| 2026-05-05 13:50 | 23.06791 | 112.94665 | 5609 ft | 169 kts | 91° |
| 2026-05-05 13:50 | 23.06780 | 112.95944 | 5483 ft | 168 kts | 91° |
| 2026-05-05 13:50 | 23.06768 | 112.97218 | 5360 ft | 167 kts | 91° |
| 2026-05-05 13:51 | 23.06756 | 112.98505 | 5235 ft | 166 kts | 91° |
| 2026-05-05 13:51 | 23.06745 | 112.99779 | 5110 ft | 166 kts | 92° |
| 2026-05-05 13:51 | 23.06733 | 113.01042 | 4987 ft | 165 kts | 92° |
| 2026-05-05 13:51 | 23.06722 | 113.02312 | 4871 ft | 164 kts | 92° |
| 2026-05-05 13:52 | 23.06710 | 113.03567 | 4870 ft | 164 kts | 92° |
| 2026-05-05 13:52 | 23.06696 | 113.04819 | 4869 ft | 164 kts | 92° |
| 2026-05-05 13:52 | 23.06683 | 113.06087 | 4866 ft | 164 kts | 92° |
| 2026-05-05 13:52 | 23.06671 | 113.07340 | 4865 ft | 164 kts | 92° |
| 2026-05-05 13:53 | 23.06649 | 113.08595 | 4866 ft | 164 kts | 95° |
| 2026-05-05 13:53 | 23.06533 | 113.09820 | 4865 ft | 164 kts | 101° |
| 2026-05-05 13:53 | 23.06295 | 113.11047 | 4872 ft | 163 kts | 105° |
| 2026-05-05 13:53 | 23.06027 | 113.12238 | 4870 ft | 163 kts | 106° |
| 2026-05-05 13:54 | 23.05753 | 113.13448 | 4866 ft | 163 kts | 105° |
| 2026-05-05 13:54 | 23.05483 | 113.14640 | 4865 ft | 163 kts | 105° |
| 2026-05-05 13:54 | 23.05212 | 113.15848 | 4865 ft | 163 kts | 105° |
| 2026-05-05 13:54 | 23.04942 | 113.17049 | 4865 ft | 163 kts | 105° |
| 2026-05-05 13:55 | 23.04719 | 113.18275 | 4865 ft | 164 kts | 92° |
| 2026-05-05 13:55 | 23.04949 | 113.19496 | 4877 ft | 166 kts | 66° |
| 2026-05-05 13:55 | 23.05531 | 113.20606 | 4876 ft | 166 kts | 58° |
| 2026-05-05 13:55 | 23.06161 | 113.21670 | 4872 ft | 166 kts | 58° |
| 2026-05-05 13:56 | 23.06831 | 113.22693 | 4864 ft | 166 kts | 43° |
| 2026-05-05 13:56 | 23.07870 | 113.23240 | 4871 ft | 165 kts | 13° |
| 2026-05-05 13:56 | 23.09022 | 113.23471 | 4875 ft | 165 kts | 8° |
| 2026-05-05 13:56 | 23.10134 | 113.23677 | 4864 ft | 155 kts | 9° |
| 2026-05-05 13:57 | 23.11186 | 113.23898 | 4855 ft | 151 kts | 10° |
| 2026-05-05 13:57 | 23.12227 | 113.24133 | 4815 ft | 151 kts | 11° |
| 2026-05-05 13:57 | 23.13262 | 113.24381 | 4623 ft | 150 kts | 12° |
| 2026-05-05 13:57 | 23.14285 | 113.24637 | 4431 ft | 150 kts | 12° |
| 2026-05-05 13:58 | 23.15322 | 113.24904 | 4235 ft | 150 kts | 13° |
| 2026-05-05 13:58 | 23.16365 | 113.25180 | 4039 ft | 150 kts | 14° |
| 2026-05-05 13:58 | 23.17390 | 113.25455 | 3845 ft | 149 kts | 14° |
| 2026-05-05 13:58 | 23.18419 | 113.25735 | 3647 ft | 149 kts | 14° |
| 2026-05-05 13:59 | 23.20447 | 113.26290 | 3256 ft | 148 kts | 15° |
| 2026-05-05 13:59 | 23.21447 | 113.26564 | 3062 ft | 147 kts | 15° |
| 2026-05-05 14:00 | 23.23450 | 113.27111 | 2678 ft | 145 kts | 15° |
| 2026-05-05 14:00 | 23.24107 | 113.27290 | 2550 ft | 144 kts | 15° |
| 2026-05-05 14:00 | 23.25395 | 113.27640 | 2302 ft | 143 kts | 16° |
| 2026-05-05 14:00 | 23.26379 | 113.27907 | 2113 ft | 141 kts | 16° |
| 2026-05-05 14:01 | 23.27333 | 113.28163 | 1930 ft | 140 kts | 16° |
| 2026-05-05 14:01 | 23.28289 | 113.28423 | 1747 ft | 139 kts | 17° |
| 2026-05-05 14:01 | 23.29242 | 113.28682 | 1563 ft | 139 kts | 17° |
| 2026-05-05 14:01 | 23.30189 | 113.28943 | 1375 ft | 139 kts | 16° |
| 2026-05-05 14:02 | 23.31135 | 113.29197 | 1159 ft | 139 kts | 15° |
| 2026-05-05 14:02 | 23.32086 | 113.29431 | 975 ft | 138 kts | 15° |
| 2026-05-05 14:02 | 23.33036 | 113.29679 | 830 ft | 138 kts | 17° |
| 2026-05-05 14:02 | 23.33976 | 113.29952 | 641 ft | 138 kts | 16° |
| 2026-05-05 14:03 | 23.34914 | 113.30211 | 501 ft | 138 kts | 15° |
| 2026-05-05 14:03 | 23.35850 | 113.30465 | 325 ft | 138 kts | 15° |
| 2026-05-05 14:03 | 23.36794 | 113.30718 | 143 ft | 137 kts | 15° |
| 2026-05-05 14:03 | 23.37726 | 113.30979 | 54 ft | 127 kts | 13° |
| 2026-05-05 14:04 | 23.38423 | 113.31168 | 54 ft | 78 kts | 13° |
| 2026-05-05 14:04 | 23.38784 | 113.31265 | 54 ft | 27 kts | 15° |
| 2026-05-05 14:04 | 23.38930 | 113.31294 | 54 ft | 20 kts | 4° |
| 2026-05-05 14:04 | 23.39072 | 113.31286 | 54 ft | 20 kts | 353° |
| 2026-05-05 14:05 | 23.39195 | 113.31235 | 54 ft | 17 kts | 291° |
| 2026-05-05 14:05 | 23.39123 | 113.31145 | 54 ft | 14 kts | 233° |
| 2026-05-05 14:05 | 23.39126 | 113.31033 | 54 ft | 15 kts | 283° |
| 2026-05-05 14:05 | 23.39152 | 113.30920 | 54 ft | 15 kts | 284° |
| 2026-05-05 14:06 | 23.39179 | 113.30806 | 54 ft | 13 kts | 294° |
| 2026-05-05 14:06 | 23.39263 | 113.30787 | 54 ft | 13 kts | 14° |
| 2026-05-05 14:06 | 23.39360 | 113.30814 | 54 ft | 14 kts | 13° |
| 2026-05-05 14:06 | 23.39457 | 113.30837 | 54 ft | 11 kts | 354° |
| 2026-05-05 14:07 | 23.39504 | 113.30764 | 54 ft | 12 kts | 283° |
| 2026-05-05 14:07 | 23.39527 | 113.30666 | 54 ft | 13 kts | 296° |
| 2026-05-05 14:07 | 23.39574 | 113.30599 | 54 ft | 9 kts | 337° |
| 2026-05-05 14:07 | 23.39626 | 113.30579 | 54 ft | 7 kts | 340° |
| 2026-05-05 14:08 | 23.39650 | 113.30570 | 54 ft | 1 kts | 340° |
| 2026-05-05 14:08 | 23.39660 | 113.30566 | 54 ft | 0 kts | 340° |